createdAt,value
2023-04-03T00:02:13.216Z,8.69
2023-04-03T00:07:16.115Z,8.87
2023-04-03T00:12:18.780Z,8.73
2023-04-03T00:17:21.739Z,8.49
2023-04-03T00:22:24.812Z,8.37
2023-04-03T00:27:27.543Z,8.55
2023-04-03T00:32:30.204Z,8.50
2023-04-03T00:37:33.418Z,8.42
2023-04-03T00:42:37.058Z,8.49
2023-04-03T00:47:42.006Z,8.58
2023-04-03T00:52:47.483Z,8.32
2023-04-03T00:57:50.640Z,8.36
2023-04-03T01:02:53.947Z,8.27
2023-04-03T01:07:57.948Z,8.51
2023-04-03T01:13:02.292Z,8.29
2023-04-03T01:18:05.899Z,8.34
2023-04-03T01:23:11.218Z,8.31
2023-04-03T01:28:20.418Z,8.12
2023-04-03T01:33:23.060Z,8.16
2023-04-03T01:38:26.622Z,8.12
2023-04-03T01:43:29.306Z,8.21
2023-04-03T01:48:31.929Z,8.16
2023-04-03T01:53:34.732Z,8.01
2023-04-03T01:58:37.475Z,7.93
2023-04-03T02:03:40.731Z,7.74
2023-04-03T02:08:43.305Z,7.74
2023-04-03T02:13:45.895Z,8.00
2023-04-03T02:18:48.568Z,8.14
2023-04-03T02:23:51.269Z,8.14
2023-04-03T02:28:55.362Z,8.02
2023-04-03T02:33:57.938Z,8.13
2023-04-03T02:39:00.665Z,8.03
2023-04-03T02:44:05.076Z,8.17
2023-04-03T02:49:08.647Z,8.22
2023-04-03T02:54:11.829Z,8.25
2023-04-03T02:59:18.498Z,8.34
2023-04-03T03:04:21.421Z,8.11
2023-04-03T03:09:24.184Z,7.98
2023-04-03T03:14:26.674Z,7.88
2023-04-03T03:19:29.234Z,7.56
2023-04-03T03:24:31.810Z,7.47
2023-04-03T03:29:34.368Z,7.47
2023-04-03T03:34:37.938Z,7.59
2023-04-03T03:39:42.038Z,7.50
2023-04-03T03:44:44.618Z,7.46
2023-04-03T03:49:47.296Z,7.62
2023-04-03T03:54:51.131Z,7.90
2023-04-03T03:59:53.965Z,8.02
2023-04-03T04:04:57.267Z,7.95
2023-04-03T04:10:00.208Z,7.86
2023-04-03T04:15:03.933Z,7.71
2023-04-03T04:20:07.001Z,7.59
2023-04-03T04:25:11.137Z,7.67
2023-04-03T04:30:16.536Z,7.69
2023-04-03T04:35:21.707Z,7.85
2023-04-03T04:40:27.910Z,8.02
2023-04-03T04:45:30.726Z,8.19
2023-04-03T04:50:33.555Z,7.83
2023-04-03T04:55:36.343Z,7.80
2023-04-03T05:00:39.972Z,7.85
2023-04-03T05:05:42.883Z,7.95
2023-04-03T05:10:47.199Z,7.93
2023-04-03T05:15:50.594Z,8.10
2023-04-03T05:20:53.320Z,8.11
2023-04-03T05:25:56.782Z,8.09
2023-04-03T05:31:00.516Z,8.20
2023-04-03T05:36:10.017Z,8.26
2023-04-03T05:41:19.032Z,8.29
2023-04-03T05:46:23.391Z,8.29
2023-04-03T05:51:34.841Z,8.35
2023-04-03T05:56:43.535Z,8.27
2023-04-03T06:01:47.339Z,8.33
2023-04-03T06:06:55.852Z,8.44
2023-04-03T06:12:01.883Z,8.56
2023-04-03T06:17:06.071Z,8.65
2023-04-03T06:22:08.879Z,8.82
2023-04-03T06:27:12.612Z,8.68
2023-04-03T06:32:16.174Z,8.67
2023-04-03T06:37:20.960Z,8.62
2023-04-03T06:42:23.935Z,8.80
2023-04-03T06:47:35.954Z,8.98
2023-04-03T06:52:38.776Z,9.09
2023-04-03T06:57:41.728Z,8.89
2023-04-03T07:02:44.441Z,8.78
2023-04-03T07:07:47.074Z,8.66
2023-04-03T07:12:49.898Z,8.64
2023-04-03T07:17:52.465Z,8.82
2023-04-03T07:22:55.102Z,9.05
2023-04-03T07:27:58.072Z,9.12
2023-04-03T07:33:00.642Z,9.12
2023-04-03T07:38:03.304Z,9.34
2023-04-03T07:43:07.132Z,9.40
2023-04-03T07:48:10.452Z,9.44
2023-04-03T07:53:13.138Z,9.50
2023-04-03T07:58:22.018Z,9.39
2023-04-03T08:03:25.043Z,9.51
2023-04-03T08:08:30.897Z,9.56
2023-04-03T08:13:36.882Z,9.71
2023-04-03T08:18:40.386Z,9.64
2023-04-03T08:23:43.471Z,9.85
2023-04-03T08:28:49.563Z,9.88
2023-04-03T08:33:52.444Z,10.22
2023-04-03T08:39:04.880Z,9.93
2023-04-03T08:44:30.661Z,9.64
2023-04-03T08:50:10.700Z,10.02
2023-04-03T08:55:27.084Z,10.11
2023-04-03T09:00:54.276Z,10.70
2023-04-03T09:06:34.148Z,10.66
2023-04-03T09:12:10.752Z,10.49
2023-04-03T09:17:37.791Z,10.63
2023-04-03T09:22:52.269Z,11.49
2023-04-03T09:27:59.067Z,11.35
2023-04-03T09:33:03.016Z,11.08
2023-04-03T09:38:17.861Z,10.69
2023-04-03T09:43:28.565Z,10.80
2023-04-03T09:48:33.701Z,10.51
2023-04-03T09:53:44.944Z,10.22
2023-04-03T09:58:52.378Z,10.29
2023-04-03T10:04:19.037Z,9.96
2023-04-03T10:09:34.325Z,10.06
2023-04-03T10:14:55.896Z,10.15
2023-04-03T10:20:30.794Z,9.97
2023-04-03T10:25:52.743Z,10.25
2023-04-03T10:31:14.860Z,10.27
2023-04-03T10:36:40.458Z,10.74
2023-04-03T10:42:17.240Z,10.72
2023-04-03T10:47:34.149Z,10.79
2023-04-03T10:52:56.554Z,10.70
2023-04-03T10:58:01.087Z,10.88
2023-04-03T11:03:19.310Z,10.82
2023-04-03T11:08:32.489Z,10.86
2023-04-03T11:13:41.482Z,10.54
2023-04-03T11:19:01.156Z,10.54
2023-04-03T11:24:09.107Z,10.96
2023-04-03T11:29:34.264Z,10.75
2023-04-03T11:34:44.400Z,10.33
2023-04-03T11:39:56.124Z,10.03
2023-04-03T11:45:52.507Z,10.28
2023-04-03T11:50:57.999Z,10.44
2023-04-03T11:56:01.924Z,10.29
2023-04-03T12:01:10.979Z,10.23
2023-04-03T12:06:17.891Z,10.34
2023-04-03T12:11:31.559Z,10.48
2023-04-03T12:16:40.828Z,10.83
2023-04-03T12:21:53.329Z,10.55
2023-04-03T12:27:01.800Z,10.34
2023-04-03T12:32:25.476Z,10.36
2023-04-03T12:37:36.901Z,10.70
2023-04-03T12:42:58.208Z,10.85
2023-04-03T12:48:05.906Z,10.72
2023-04-03T12:53:18.395Z,10.35
2023-04-03T12:58:27.549Z,10.38
2023-04-03T13:03:31.045Z,10.64
2023-04-03T13:08:33.972Z,10.97
2023-04-03T13:13:36.927Z,12.02
2023-04-03T13:18:40.098Z,12.04
2023-04-03T13:23:47.953Z,12.10
2023-04-03T13:28:52.641Z,12.58
2023-04-03T13:34:04.360Z,12.26
2023-04-03T13:39:12.063Z,11.62
2023-04-03T13:44:17.583Z,11.59
2023-04-03T13:49:33.416Z,12.06
2023-04-03T13:54:40.876Z,12.92
2023-04-03T13:59:44.528Z,12.38
2023-04-03T14:04:47.095Z,12.34
2023-04-03T14:09:49.909Z,11.94
2023-04-03T14:14:52.776Z,11.83
2023-04-03T14:19:57.702Z,11.70
2023-04-03T14:25:00.477Z,11.51
2023-04-03T14:30:05.183Z,11.29
2023-04-03T14:35:08.311Z,11.30
2023-04-03T14:40:14.538Z,11.07
2023-04-03T14:45:19.633Z,14.86
2023-04-03T14:50:25.619Z,15.86
2023-04-03T14:55:29.038Z,14.43
2023-04-03T15:00:31.731Z,13.15
2023-04-03T15:05:38.649Z,12.52
2023-04-03T15:10:41.536Z,12.24
2023-04-03T15:15:44.586Z,11.83
2023-04-03T15:20:48.569Z,11.63
2023-04-03T15:25:51.319Z,11.79
2023-04-03T15:30:54.093Z,12.10
2023-04-03T15:36:06.508Z,12.35
2023-04-03T15:41:10.319Z,11.68
2023-04-03T15:46:14.660Z,11.39
2023-04-03T15:51:17.348Z,10.83
2023-04-03T15:56:19.846Z,12.09
2023-04-03T16:01:22.582Z,13.23
2023-04-03T16:06:26.575Z,13.47
2023-04-03T16:11:29.718Z,13.25
2023-04-03T16:16:36.701Z,13.24
2023-04-03T16:21:39.670Z,12.18
2023-04-03T16:26:42.462Z,11.76
2023-04-03T16:31:45.260Z,11.26
2023-04-03T16:36:48.055Z,10.89
2023-04-03T16:41:51.176Z,10.83
2023-04-03T16:46:53.944Z,10.59
2023-04-03T16:51:56.788Z,10.58
2023-04-03T16:56:59.654Z,10.64
2023-04-03T17:02:02.271Z,10.75
2023-04-03T17:07:07.257Z,10.57
2023-04-03T17:12:10.036Z,10.66
2023-04-03T17:17:13.043Z,10.74
2023-04-03T17:22:17.684Z,10.55
2023-04-03T17:27:20.224Z,10.24
2023-04-03T17:32:23.002Z,10.23
2023-04-03T17:37:25.714Z,10.25
2023-04-03T17:42:31.486Z,10.20
2023-04-03T17:47:34.327Z,10.23
2023-04-03T17:52:37.019Z,10.16
2023-04-03T17:57:40.152Z,10.01
2023-04-03T18:02:43.579Z,9.90
2023-04-03T18:07:46.500Z,9.86
2023-04-03T18:12:49.150Z,9.78
2023-04-03T18:17:56.741Z,9.81
2023-04-03T18:23:00.364Z,9.71
2023-04-03T18:28:06.595Z,9.67
2023-04-03T18:33:09.284Z,9.69
2023-04-03T18:38:12.123Z,9.67
2023-04-03T18:43:15.668Z,9.62
2023-04-03T18:48:18.609Z,9.69
2023-04-03T18:53:21.829Z,9.62
2023-04-03T18:58:24.437Z,9.30
2023-04-03T19:03:28.005Z,9.53
2023-04-03T19:08:31.027Z,9.32
2023-04-03T19:13:34.451Z,9.30
2023-04-03T19:18:38.216Z,9.26
2023-04-03T19:23:43.036Z,9.25
2023-04-03T19:28:49.029Z,9.23
2023-04-03T19:33:52.050Z,9.09
2023-04-03T19:38:54.703Z,9.06
2023-04-03T19:43:57.680Z,9.14
2023-04-03T19:49:00.505Z,9.16
2023-04-03T19:54:03.309Z,8.92
2023-04-03T19:59:06.450Z,8.68
2023-04-03T20:04:09.687Z,8.69
2023-04-03T20:09:12.695Z,8.42
2023-04-03T20:14:16.848Z,8.44
2023-04-03T20:19:19.699Z,8.42
2023-04-03T20:24:22.445Z,8.33
2023-04-03T20:29:25.969Z,8.13
2023-04-03T20:34:28.519Z,8.03
2023-04-03T20:39:31.568Z,7.93
2023-04-03T20:44:34.190Z,8.00
2023-04-03T20:49:37.813Z,7.94
2023-04-03T20:54:41.250Z,7.84
2023-04-03T20:59:44.053Z,7.75
2023-04-03T21:04:56.288Z,7.56
2023-04-03T21:10:36.165Z,7.74
2023-04-03T21:15:55.167Z,7.98
2023-04-03T21:20:57.785Z,8.02
2023-04-03T21:26:01.601Z,8.03
2023-04-03T21:31:04.152Z,7.77
2023-04-03T21:36:07.852Z,7.70
2023-04-03T21:41:10.633Z,7.70
2023-04-03T21:46:13.895Z,7.76
2023-04-03T21:51:19.508Z,7.80
2023-04-03T21:56:22.950Z,7.91
2023-04-03T22:01:25.722Z,7.69
2023-04-03T22:06:28.943Z,7.63
2023-04-03T22:11:31.453Z,7.53
2023-04-03T22:16:33.964Z,7.31
2023-04-03T22:21:36.633Z,7.25
2023-04-03T22:26:44.492Z,7.10
2023-04-03T22:31:47.114Z,7.04
2023-04-03T22:36:49.610Z,7.08
2023-04-03T22:41:52.759Z,6.98
2023-04-03T22:46:55.315Z,6.86
2023-04-03T22:51:57.889Z,6.81
2023-04-03T22:57:00.419Z,6.84
2023-04-03T23:02:03.404Z,6.98
2023-04-03T23:07:05.975Z,6.86
2023-04-03T23:12:10.133Z,7.04
2023-04-03T23:17:12.986Z,7.01
2023-04-03T23:22:15.926Z,6.72
2023-04-03T23:27:18.641Z,6.43
2023-04-03T23:32:21.404Z,6.40
2023-04-03T23:37:23.918Z,6.60
2023-04-03T23:42:26.388Z,6.83
2023-04-03T23:47:28.996Z,7.01
2023-04-03T23:52:31.646Z,6.56
2023-04-03T23:57:34.153Z,6.72
